Time;durP1;ratioP1;P1;durP2;ratioP2;P2;SDS_P1;SDS_P2;PMS_P1;PMS_P2;Temp;Humidity;BMP_temperature;BMP_pressure;BME280_temperature;BME280_humidity;BME280_pressure;Samples;Min_cycle;Max_cycle;Signal;HPM_P1;HPM_P2
2021/05/15 00:00:00;;;;;;;4.10;0.63;;;10.80;99.90;;;;;;5019218;28;20557;-77
2021/05/15 00:02:26;;;;;;;1.90;0.80;;;10.80;99.90;;;;;;5020396;28;20060;-78
2021/05/15 00:04:51;;;;;;;3.08;0.80;;;10.60;99.90;;;;;;5017418;28;20081;-77
2021/05/15 00:07:17;;;;;;;1.45;0.57;;;10.60;99.90;;;;;;5017371;28;20029;-76
2021/05/15 00:09:43;;;;;;;1.80;0.70;;;10.60;99.90;;;;;;5024719;28;20038;-78
2021/05/15 00:12:09;;;;;;;0.88;0.45;;;10.50;99.90;;;;;;5019957;28;20045;-77
2021/05/15 00:14:35;;;;;;;1.77;0.82;;;10.50;99.90;;;;;;5018710;28;20033;-78
2021/05/15 00:17:01;;;;;;;1.55;0.70;;;10.40;99.90;;;;;;5017884;28;20036;-78
2021/05/15 00:19:27;;;;;;;1.63;0.75;;;10.50;99.90;;;;;;5025271;28;20499;-78
2021/05/15 00:21:53;;;;;;;2.10;0.90;;;10.40;99.90;;;;;;5020345;28;20063;-77
2021/05/15 00:24:18;;;;;;;2.67;0.88;;;10.40;99.90;;;;;;5020194;28;20730;-77
2021/05/15 00:26:44;;;;;;;4.97;1.00;;;10.50;99.90;;;;;;5018038;28;20034;-77
2021/05/15 00:29:10;;;;;;;2.65;1.00;;;10.60;99.90;;;;;;5021277;28;20025;-77
2021/05/15 00:31:36;;;;;;;2.17;1.20;;;10.60;99.90;;;;;;5016801;28;20120;-77
2021/05/15 00:34:02;;;;;;;2.47;1.23;;;10.60;99.90;;;;;;5017635;28;20184;-75
2021/05/15 00:36:28;;;;;;;2.65;1.42;;;10.40;99.90;;;;;;5017634;28;20441;-77
2021/05/15 00:38:54;;;;;;;4.30;1.50;;;10.40;99.90;;;;;;5015401;28;20036;-77
2021/05/15 00:41:19;;;;;;;3.03;1.77;;;10.40;99.90;;;;;;5022860;28;20044;-79
2021/05/15 00:43:58;;;;;;;3.03;1.60;;;10.30;99.90;;;;;;5020002;28;20025;-76
2021/05/15 00:46:26;;;;;;;6.38;1.67;;;10.20;99.90;;;;;;5024549;28;20148;-78
2021/05/15 00:48:52;;;;;;;4.40;2.00;;;10.30;99.90;;;;;;5020402;28;20036;-77
2021/05/15 00:51:20;;;;;;;2.53;1.27;;;10.40;99.90;;;;;;5026728;28;20041;-77
2021/05/15 00:53:46;;;;;;;3.38;1.85;;;10.50;99.90;;;;;;5022024;28;21126;-77
2021/05/15 00:56:11;;;;;;;3.40;1.45;;;10.50;99.90;;;;;;5019982;28;20040;-76
2021/05/15 00:58:40;;;;;;;2.85;1.40;;;10.40;99.90;;;;;;5021927;28;20537;-77
2021/05/15 01:01:06;;;;;;;2.40;1.38;;;10.40;99.90;;;;;;5029790;28;20151;-77
2021/05/15 01:03:32;;;;;;;3.17;1.63;;;10.40;99.90;;;;;;5020124;28;20195;-77
2021/05/15 01:06:01;;;;;;;2.42;1.23;;;10.40;99.90;;;;;;5024320;28;20017;-75
2021/05/15 01:08:27;;;;;;;2.60;1.48;;;10.40;99.90;;;;;;5019771;28;20044;-77
2021/05/15 01:10:53;;;;;;;2.65;1.40;;;10.40;99.90;;;;;;5021273;28;20077;-77
2021/05/15 01:13:23;;;;;;;3.13;1.42;;;10.50;99.90;;;;;;5036976;28;20085;-78
2021/05/15 01:15:49;;;;;;;2.42;1.48;;;10.50;99.90;;;;;;5033341;28;20022;-79
2021/05/15 01:18:15;;;;;;;2.92;1.50;;;10.50;99.90;;;;;;5034460;28;20092;-77
2021/05/15 01:20:40;;;;;;;3.30;1.50;;;10.50;99.90;;;;;;5036679;28;20029;-78
2021/05/15 01:23:06;;;;;;;2.70;1.25;;;10.60;99.90;;;;;;5026895;28;20037;-77
2021/05/15 01:25:32;;;;;;;2.75;1.30;;;10.70;99.90;;;;;;5020988;28;20079;-78
2021/05/15 01:27:57;;;;;;;3.85;1.33;;;10.70;99.90;;;;;;5019601;28;20806;-77
2021/05/15 01:30:23;;;;;;;2.03;0.98;;;10.60;99.90;;;;;;5018793;28;20024;-77
2021/05/15 01:32:49;;;;;;;2.60;1.30;;;10.50;99.90;;;;;;5023732;28;20042;-78
2021/05/15 01:35:17;;;;;;;3.15;0.93;;;10.50;99.90;;;;;;5019293;28;20035;-77
2021/05/15 01:37:43;;;;;;;3.92;1.10;;;10.60;99.90;;;;;;5017639;28;20032;-77
2021/05/15 01:40:10;;;;;;;2.38;1.15;;;10.50;99.90;;;;;;5019622;28;20045;-77
2021/05/15 01:42:36;;;;;;;1.77;0.98;;;10.60;99.90;;;;;;5023927;28;20033;-77
2021/05/15 01:45:05;;;;;;;4.22;1.13;;;10.60;99.90;;;;;;5024076;28;20487;-77
2021/05/15 01:47:35;;;;;;;3.75;1.77;;;10.70;99.90;;;;;;5024287;28;20052;-77
2021/05/15 01:50:02;;;;;;;3.05;1.50;;;10.70;99.90;;;;;;5019344;28;20041;-77
2021/05/15 01:52:28;;;;;;;2.40;1.23;;;10.70;99.90;;;;;;5023193;28;20136;-78
2021/05/15 01:54:53;;;;;;;2.22;1.08;;;10.80;99.90;;;;;;5024406;28;20494;-78
2021/05/15 01:57:19;;;;;;;2.47;1.10;;;10.80;99.90;;;;;;5018237;28;20033;-76
2021/05/15 01:59:45;;;;;;;2.30;1.13;;;10.70;99.90;;;;;;5024082;28;20428;-77
2021/05/15 02:02:11;;;;;;;4.28;1.00;;;10.60;99.90;;;;;;5022312;28;20033;-77
2021/05/15 02:04:36;;;;;;;3.10;1.17;;;10.70;99.90;;;;;;5024605;28;20033;-74
2021/05/15 02:07:02;;;;;;;3.33;1.60;;;10.80;99.90;;;;;;5018707;28;20049;-78
2021/05/15 02:09:27;;;;;;;3.60;1.23;;;10.80;99.90;;;;;;5020740;28;20029;-77
2021/05/15 02:11:53;;;;;;;2.33;0.95;;;10.70;99.90;;;;;;5018946;28;20199;-77
2021/05/15 02:14:19;;;;;;;2.20;1.33;;;10.60;99.90;;;;;;5019861;28;20045;-75
2021/05/15 02:16:44;;;;;;;2.17;1.00;;;10.60;99.90;;;;;;5022019;28;20041;-76
2021/05/15 02:19:10;;;;;;;3.53;1.30;;;10.50;99.90;;;;;;5019259;28;20067;-78
2021/05/15 02:21:36;;;;;;;4.07;1.10;;;10.60;99.90;;;;;;5023106;28;20058;-77
2021/05/15 02:24:02;;;;;;;1.92;0.85;;;10.60;99.90;;;;;;5020460;28;20379;-77
2021/05/15 02:26:28;;;;;;;1.83;0.77;;;10.50;99.90;;;;;;5025017;28;20451;-78
2021/05/15 02:28:53;;;;;;;3.28;0.90;;;10.50;99.90;;;;;;5039055;28;20064;-78
2021/05/15 02:31:19;;;;;;;1.85;0.70;;;10.50;99.90;;;;;;5042575;28;20076;-78
2021/05/15 02:33:45;;;;;;;2.03;0.60;;;10.60;99.90;;;;;;5037689;28;20116;-78
2021/05/15 02:36:11;;;;;;;3.22;0.90;;;10.50;99.90;;;;;;5024814;28;20379;-77
2021/05/15 02:38:36;;;;;;;2.20;0.90;;;10.50;99.90;;;;;;5017721;28;20064;-77
2021/05/15 02:41:02;;;;;;;3.72;1.33;;;10.50;99.90;;;;;;5018127;28;20029;-77
2021/05/15 02:43:28;;;;;;;2.10;0.77;;;10.50;99.90;;;;;;5022561;28;20422;-78
2021/05/15 02:45:53;;;;;;;3.05;1.67;;;10.40;99.90;;;;;;5022037;28;20033;-77
2021/05/15 02:48:19;;;;;;;2.53;0.80;;;10.60;99.90;;;;;;5021567;28;20033;-78
2021/05/15 02:50:51;;;;;;;3.45;1.10;;;10.70;99.90;;;;;;5022925;28;20037;-75
2021/05/15 02:53:17;;;;;;;4.57;1.52;;;10.70;99.90;;;;;;5018750;28;20405;-78
2021/05/15 02:55:43;;;;;;;3.85;1.35;;;10.70;99.90;;;;;;5024297;28;20032;-78
2021/05/15 02:58:10;;;;;;;2.78;1.23;;;10.80;99.90;;;;;;5018631;28;20033;-80
2021/05/15 03:00:37;;;;;;;2.05;0.95;;;10.70;99.90;;;;;;5017351;28;20030;-75
2021/05/15 03:03:03;;;;;;;2.13;1.10;;;10.70;99.90;;;;;;5012545;28;20479;-83
2021/05/15 03:05:29;;;;;;;3.90;1.50;;;10.60;99.90;;;;;;5013578;28;20028;-76
2021/05/15 03:07:55;;;;;;;3.72;1.17;;;10.60;99.90;;;;;;5014239;28;20525;-78
2021/05/15 03:10:23;;;;;;;4.65;1.90;;;10.70;99.90;;;;;;5015737;28;20159;-78
2021/05/15 03:12:53;;;;;;;2.03;1.05;;;10.60;99.90;;;;;;5013635;28;20037;-78
2021/05/15 03:15:21;;;;;;;3.85;0.90;;;10.30;99.90;;;;;;5013241;28;20037;-77
2021/05/15 03:17:47;;;;;;;2.45;1.05;;;10.50;99.90;;;;;;5016731;28;21771;-77
2021/05/15 03:20:17;;;;;;;4.80;1.27;;;10.50;99.90;;;;;;5024105;28;20045;-83
2021/05/15 03:22:43;;;;;;;3.25;1.27;;;10.60;99.90;;;;;;5029991;28;20501;-78
2021/05/15 03:25:10;;;;;;;2.95;0.85;;;10.60;99.90;;;;;;5026004;28;20030;-86
2021/05/15 03:27:36;;;;;;;2.08;1.00;;;10.50;99.90;;;;;;5026001;28;20034;-81
2021/05/15 03:30:04;;;;;;;1.98;1.23;;;10.30;99.90;;;;;;5026824;28;20033;-83
2021/05/15 03:32:29;;;;;;;2.63;0.95;;;10.40;99.90;;;;;;5039289;28;20029;-83
2021/05/15 03:34:55;;;;;;;3.40;0.95;;;10.40;99.90;;;;;;5020579;28;20066;-78
2021/05/15 03:37:21;;;;;;;2.72;1.23;;;10.40;99.90;;;;;;5012746;28;20048;-78
2021/05/15 03:39:46;;;;;;;1.67;0.82;;;10.50;99.90;;;;;;5016032;28;20131;-75
2021/05/15 03:42:12;;;;;;;5.45;1.10;;;10.40;99.90;;;;;;5016024;28;20688;-77
2021/05/15 03:44:38;;;;;;;2.63;0.98;;;10.30;99.90;;;;;;5013921;28;21563;-77
2021/05/15 03:47:03;;;;;;;3.05;1.25;;;10.20;99.90;;;;;;5012814;28;21051;-84
2021/05/15 03:49:31;;;;;;;3.78;1.20;;;10.20;99.90;;;;;;5020963;28;20041;-77
2021/05/15 03:51:57;;;;;;;1.67;0.85;;;10.10;99.90;;;;;;5015321;28;20502;-76
2021/05/15 03:54:22;;;;;;;2.22;1.00;;;10.10;99.90;;;;;;5013976;28;20043;-76
2021/05/15 03:56:48;;;;;;;1.27;0.80;;;10.20;99.90;;;;;;5014208;28;20038;-76
2021/05/15 03:59:14;;;;;;;2.75;1.10;;;10.20;99.90;;;;;;5012394;28;20394;-79
2021/05/15 04:01:39;;;;;;;2.65;1.00;;;10.30;99.90;;;;;;5018775;28;20044;-77
2021/05/15 04:04:05;;;;;;;2.10;1.10;;;10.20;99.90;;;;;;5015009;28;20399;-80
2021/05/15 04:06:31;;;;;;;4.80;1.83;;;10.30;99.90;;;;;;5013335;28;20827;-76
2021/05/15 04:08:57;;;;;;;2.85;1.60;;;10.30;99.90;;;;;;5013842;28;20117;-77
2021/05/15 04:11:23;;;;;;;3.95;1.67;;;10.30;99.90;;;;;;5013077;28;20041;-80
2021/05/15 04:18:46;;;;;;;1.60;0.60;;;10.40;99.90;;;;;;5014572;28;20025;-77
2021/05/15 04:21:12;;;;;;;3.50;1.00;;;10.50;99.90;;;;;;5023957;28;20027;-77
2021/05/15 04:23:38;;;;;;;2.53;0.95;;;10.50;99.90;;;;;;5018555;28;20033;-78
2021/05/15 04:26:04;;;;;;;3.92;1.00;;;10.50;99.90;;;;;;5016303;28;20033;-77
2021/05/15 04:28:31;;;;;;;2.85;1.00;;;10.50;99.90;;;;;;5018789;28;20387;-78
2021/05/15 04:30:57;;;;;;;1.80;0.80;;;10.40;99.90;;;;;;5023258;28;20879;-79
2021/05/15 04:33:23;;;;;;;4.00;0.95;;;10.50;99.90;;;;;;5015911;28;20041;-77
2021/05/15 04:35:53;;;;;;;2.50;1.33;;;10.60;99.90;;;;;;5017675;28;20078;-78
2021/05/15 04:38:19;;;;;;;3.78;1.30;;;10.60;99.90;;;;;;5019441;28;20041;-76
2021/05/15 04:40:45;;;;;;;3.05;0.90;;;10.70;99.90;;;;;;5020615;28;20033;-78
2021/05/15 04:43:13;;;;;;;2.00;0.93;;;10.70;99.90;;;;;;5016856;28;20041;-77
2021/05/15 04:45:40;;;;;;;3.47;1.02;;;10.70;99.90;;;;;;5015950;28;20029;-78
2021/05/15 04:48:05;;;;;;;7.32;1.20;;;10.70;99.90;;;;;;5019166;28;20036;-78
2021/05/15 04:50:31;;;;;;;2.42;1.10;;;10.80;99.90;;;;;;5015785;28;21384;-79
2021/05/15 04:52:57;;;;;;;2.92;1.52;;;10.80;99.90;;;;;;5022656;28;20128;-77
2021/05/15 04:55:23;;;;;;;2.97;1.50;;;10.90;99.90;;;;;;5014764;28;20029;-78
2021/05/15 04:57:48;;;;;;;2.17;1.10;;;10.90;99.90;;;;;;5016817;28;20045;-77
2021/05/15 05:00:15;;;;;;;2.47;1.23;;;10.90;99.90;;;;;;5017712;28;20150;-78
2021/05/15 05:02:40;;;;;;;7.07;1.23;;;10.90;99.90;;;;;;5020606;28;21182;-77
2021/05/15 05:05:08;;;;;;;3.10;1.75;;;11.00;99.90;;;;;;5016733;28;20080;-77
2021/05/15 05:07:34;;;;;;;2.90;1.40;;;11.00;99.90;;;;;;5015830;28;20061;-77
2021/05/15 05:09:59;;;;;;;4.72;1.40;;;11.00;99.90;;;;;;5017570;28;20147;-77
2021/05/15 05:12:25;;;;;;;3.15;1.52;;;11.00;99.90;;;;;;5018750;28;20033;-77
2021/05/15 05:14:51;;;;;;;3.50;1.67;;;11.00;99.90;;;;;;5018128;28;20033;-77
2021/05/15 05:17:17;;;;;;;2.63;1.30;;;11.00;99.90;;;;;;5015251;28;20029;-78
2021/05/15 05:19:43;;;;;;;2.72;1.60;;;11.10;99.90;;;;;;5017283;28;20029;-79
2021/05/15 05:22:09;;;;;;;2.78;1.42;;;11.10;99.90;;;;;;5019643;28;20033;-82
2021/05/15 05:24:35;;;;;;;2.55;1.27;;;11.20;99.90;;;;;;5019820;28;20072;-75
2021/05/15 05:27:02;;;;;;;7.25;2.10;;;11.20;99.90;;;;;;5013884;28;20033;-78
2021/05/15 05:29:28;;;;;;;3.08;1.50;;;11.20;99.90;;;;;;5016178;28;20114;-75
2021/05/15 05:31:54;;;;;;;2.88;1.60;;;11.30;99.90;;;;;;5015412;28;20059;-77
2021/05/15 05:34:20;;;;;;;5.82;1.60;;;11.20;99.90;;;;;;5021769;28;20098;-75
2021/05/15 05:36:47;;;;;;;3.72;1.90;;;11.30;99.90;;;;;;5017333;28;20075;-77
2021/05/15 05:39:18;;;;;;;7.53;1.88;;;11.30;99.90;;;;;;5023292;28;20482;-76
2021/05/15 05:41:45;;;;;;;2.97;1.50;;;11.40;99.90;;;;;;5022530;28;20041;-79
2021/05/15 05:44:11;;;;;;;3.20;1.70;;;11.40;99.90;;;;;;5018723;28;20033;-75
2021/05/15 05:46:38;;;;;;;3.53;1.88;;;11.40;99.90;;;;;;5016118;28;20146;-77
2021/05/15 05:49:04;;;;;;;5.15;2.40;;;11.40;99.90;;;;;;5013517;28;20088;-76
2021/05/15 05:51:30;;;;;;;3.95;1.75;;;11.40;99.90;;;;;;5014933;28;20037;-76
2021/05/15 05:53:56;;;;;;;4.85;1.88;;;11.40;99.90;;;;;;5015736;28;20051;-78
2021/05/15 05:56:21;;;;;;;5.13;2.10;;;11.50;99.90;;;;;;5018711;28;20107;-76
2021/05/15 05:58:47;;;;;;;3.75;2.15;;;11.50;99.90;;;;;;5013339;28;20034;-78
2021/05/15 06:01:16;;;;;;;4.20;2.13;;;11.60;99.90;;;;;;5034620;28;20067;-81
2021/05/15 06:03:43;;;;;;;5.20;2.40;;;11.60;99.90;;;;;;5032991;28;20864;-78
2021/05/15 06:06:10;;;;;;;3.42;2.05;;;11.60;99.90;;;;;;5026008;28;20036;-87
2021/05/15 06:08:35;;;;;;;3.97;2.47;;;11.70;99.90;;;;;;5036471;28;20482;-79
2021/05/15 06:11:01;;;;;;;4.13;2.58;;;11.70;99.90;;;;;;5019295;28;20217;-76
2021/05/15 06:13:27;;;;;;;3.90;2.45;;;11.80;99.90;;;;;;5014099;28;20506;-77
2021/05/15 06:15:53;;;;;;;5.88;2.00;;;11.70;99.90;;;;;;5013527;28;20029;-79
2021/05/15 06:18:20;;;;;;;4.78;3.47;;;11.90;99.90;;;;;;5013994;28;20845;-76
2021/05/15 06:20:49;;;;;;;3.72;2.38;;;11.90;99.90;;;;;;5018634;28;20057;-81
2021/05/15 06:23:15;;;;;;;5.13;2.95;;;12.00;99.90;;;;;;5016678;28;20033;-77
2021/05/15 06:25:41;;;;;;;7.43;2.42;;;11.90;99.90;;;;;;5012160;28;20048;-77
2021/05/15 06:28:07;;;;;;;4.13;2.47;;;12.00;99.90;;;;;;5019174;28;20021;-82
2021/05/15 06:30:33;;;;;;;4.57;2.55;;;12.10;99.90;;;;;;5036338;28;20025;-77
2021/05/15 06:32:59;;;;;;;7.25;3.55;;;12.30;99.90;;;;;;5026207;28;20041;-76
2021/05/15 06:35:25;;;;;;;6.43;3.15;;;12.20;99.90;;;;;;5032718;28;20053;-77
2021/05/15 06:37:51;;;;;;;6.40;3.10;;;12.30;99.90;;;;;;5035428;28;20092;-77
2021/05/15 06:40:17;;;;;;;4.60;3.05;;;12.40;99.90;;;;;;5030955;28;20617;-77
2021/05/15 06:42:43;;;;;;;5.95;2.92;;;12.40;99.90;;;;;;5025628;28;20112;-78
2021/05/15 06:45:10;;;;;;;3.67;2.63;;;12.40;99.90;;;;;;5031654;28;20112;-78
2021/05/15 06:47:36;;;;;;;6.88;3.42;;;12.30;99.90;;;;;;5027672;28;20037;-77
2021/05/15 06:50:05;;;;;;;3.80;2.60;;;12.50;99.90;;;;;;5024006;28;20112;-76
2021/05/15 06:52:30;;;;;;;5.75;3.28;;;12.60;99.90;;;;;;5037283;28;20025;-77
2021/05/15 06:54:56;;;;;;;6.13;2.92;;;12.60;99.90;;;;;;5034988;28;20053;-78
2021/05/15 06:57:22;;;;;;;6.50;3.17;;;13.10;99.90;;;;;;5029220;28;20432;-78
2021/05/15 06:59:47;;;;;;;5.65;3.30;;;13.60;99.90;;;;;;5026147;28;20606;-78
2021/05/15 07:02:14;;;;;;;5.40;3.88;;;13.90;99.90;;;;;;5031165;28;20063;-78
2021/05/15 07:04:39;;;;;;;6.45;2.95;;;14.10;99.90;;;;;;5032057;28;20371;-78
2021/05/15 07:07:05;;;;;;;4.45;3.30;;;14.40;99.90;;;;;;5024438;28;20041;-77
2021/05/15 07:09:31;;;;;;;8.15;4.25;;;14.70;99.90;;;;;;5026611;28;20108;-77
2021/05/15 07:11:56;;;;;;;3.60;1.90;;;14.70;99.90;;;;;;5027800;28;20057;-77
2021/05/15 07:14:22;;;;;;;5.82;2.20;;;15.00;99.90;;;;;;5024017;28;20044;-78
2021/05/15 07:16:48;;;;;;;5.80;1.80;;;15.40;99.90;;;;;;5030947;28;20028;-78
2021/05/15 07:19:14;;;;;;;2.63;1.20;;;16.20;99.90;;;;;;5032189;28;20112;-76
2021/05/15 07:21:41;;;;;;;3.20;1.23;;;17.00;99.90;;;;;;5024470;28;20494;-78
2021/05/15 07:24:07;;;;;;;2.88;1.30;;;18.00;98.70;;;;;;5029279;28;20057;-80
2021/05/15 07:26:33;;;;;;;3.80;1.00;;;18.80;97.00;;;;;;5029864;28;20064;-79
2021/05/15 07:28:59;;;;;;;1.95;1.00;;;17.60;98.20;;;;;;5035735;28;20068;-78
2021/05/15 07:31:24;;;;;;;2.05;1.13;;;16.90;99.10;;;;;;5029483;28;20033;-81
2021/05/15 07:33:50;;;;;;;3.13;1.25;;;17.20;99.80;;;;;;5037052;28;20448;-79
2021/05/15 07:36:17;;;;;;;1.95;1.10;;;17.10;99.70;;;;;;5032582;28;20056;-77
2021/05/15 07:38:47;;;;;;;3.55;1.75;;;16.00;99.90;;;;;;5036640;28;20091;-77
2021/05/15 07:41:13;;;;;;;2.53;1.50;;;15.50;99.90;;;;;;5030173;28;20029;-81
2021/05/15 07:43:39;;;;;;;2.65;1.40;;;15.30;99.90;;;;;;5027228;28;20025;-81
2021/05/15 07:46:04;;;;;;;2.05;1.15;;;15.90;99.90;;;;;;5043336;28;20025;-79
2021/05/15 07:48:40;;;;;;;3.67;1.85;;;16.30;99.90;;;;;;5044085;28;20035;-79
2021/05/15 07:51:21;;;;;;;3.03;1.65;;;15.40;99.90;;;;;;5023427;28;20059;-78
2021/05/15 07:53:50;;;;;;;4.25;1.60;;;14.80;99.90;;;;;;5047524;28;20542;-79
2021/05/15 07:56:16;;;;;;;4.07;1.50;;;15.10;99.90;;;;;;5048850;28;20020;-80
2021/05/15 07:58:42;;;;;;;3.60;1.85;;;15.20;99.90;;;;;;5035919;28;20029;-79
2021/05/15 08:01:08;;;;;;;3.53;1.77;;;14.80;99.90;;;;;;5044879;28;20037;-78
2021/05/15 08:03:34;;;;;;;3.40;2.00;;;14.60;99.90;;;;;;5048369;28;20029;-78
2021/05/15 08:05:59;;;;;;;3.38;1.83;;;14.70;99.90;;;;;;5047832;28;20033;-79
2021/05/15 08:08:25;;;;;;;7.22;2.30;;;14.80;99.90;;;;;;5038138;28;20049;-79
2021/05/15 08:10:51;;;;;;;6.20;1.98;;;14.90;99.90;;;;;;5028043;28;20095;-80
2021/05/15 08:13:17;;;;;;;4.18;2.13;;;15.20;99.90;;;;;;5047922;28;20506;-81
2021/05/15 08:15:44;;;;;;;2.90;2.08;;;15.60;99.90;;;;;;5048650;28;20457;-80
2021/05/15 08:18:10;;;;;;;4.68;2.08;;;15.10;99.90;;;;;;5048452;28;20028;-80
2021/05/15 08:20:36;;;;;;;3.60;1.80;;;14.90;99.90;;;;;;5041393;28;20536;-80
2021/05/15 08:23:01;;;;;;;3.70;1.70;;;15.20;99.90;;;;;;5028841;28;20017;-80
2021/05/15 08:25:27;;;;;;;6.22;1.55;;;15.60;99.90;;;;;;5031720;28;20056;-82
2021/05/15 08:27:59;;;;;;;4.40;0.90;;;15.80;99.90;;;;;;5049155;28;20085;-80
2021/05/15 08:30:28;;;;;;;2.47;0.85;;;16.50;99.90;;;;;;5046252;28;20026;-81
2021/05/15 08:32:55;;;;;;;1.48;0.75;;;16.50;99.90;;;;;;5028503;28;20091;-81
2021/05/15 08:35:21;;;;;;;3.30;0.75;;;16.50;99.90;;;;;;5029552;28;20379;-81
2021/05/15 08:37:48;;;;;;;1.20;0.60;;;16.40;99.30;;;;;;5036667;28;20024;-83
2021/05/15 08:40:14;;;;;;;1.08;0.35;;;16.30;97.80;;;;;;5048962;28;20548;-81
2021/05/15 08:42:42;;;;;;;1.10;0.50;;;16.00;99.50;;;;;;5029725;28;20021;-82
2021/05/15 08:45:11;;;;;;;1.25;0.55;;;16.00;99.50;;;;;;5028731;28;20641;-81
2021/05/15 08:47:38;;;;;;;0.63;0.28;;;16.00;99.90;;;;;;5028540;28;20108;-82
2021/05/15 08:50:07;;;;;;;0.85;0.52;;;15.90;99.90;;;;;;5043563;28;20037;-81
2021/05/15 08:52:39;;;;;;;3.83;0.90;;;15.80;99.90;;;;;;5036540;28;20202;-83
2021/05/15 08:55:10;;;;;;;3.92;0.77;;;16.00;99.90;;;;;;5031291;28;20073;-81
2021/05/15 08:57:37;;;;;;;4.13;0.90;;;15.70;99.90;;;;;;5028088;28;20422;-82
2021/05/15 09:00:16;;;;;;;1.25;0.50;;;15.80;99.90;;;;;;5038163;28;20100;-81
2021/05/15 09:02:45;;;;;;;1.52;0.60;;;15.80;99.90;;;;;;5027236;28;20391;-77
2021/05/15 09:05:12;;;;;;;0.77;0.40;;;15.90;99.90;;;;;;5026722;28;20501;-79
2021/05/15 09:07:38;;;;;;;3.60;0.77;;;16.00;99.90;;;;;;5026664;28;20379;-75
2021/05/15 09:10:06;;;;;;;1.70;0.70;;;16.20;99.90;;;;;;5032787;28;20113;-76
2021/05/15 09:12:32;;;;;;;1.33;0.70;;;16.00;99.60;;;;;;5026564;28;20033;-81
2021/05/15 09:14:59;;;;;;;3.65;0.65;;;16.00;99.90;;;;;;5033517;28;20043;-85
2021/05/15 09:17:25;;;;;;;2.08;0.50;;;16.00;99.90;;;;;;5041630;28;20025;-82
2021/05/15 09:19:53;;;;;;;1.85;0.73;;;16.10;99.90;;;;;;5034650;28;20147;-80
2021/05/15 09:22:26;;;;;;;2.95;1.48;;;16.00;99.90;;;;;;5035515;28;20033;-83
2021/05/15 09:24:52;;;;;;;3.80;1.05;;;15.80;99.90;;;;;;5039440;28;20021;-86
2021/05/15 09:27:18;;;;;;;1.75;0.90;;;16.40;99.90;;;;;;5036179;28;20025;-85
2021/05/15 09:29:48;;;;;;;2.03;0.80;;;16.70;99.90;;;;;;5034105;28;20037;-83
2021/05/15 09:32:26;;;;;;;3.45;1.20;;;17.20;99.90;;;;;;5040350;28;20051;-83
2021/05/15 09:35:27;;;;;;;2.78;0.70;;;17.40;99.50;;;;;;5036898;28;20698;-79
2021/05/15 09:37:53;;;;;;;2.40;0.90;;;16.60;98.80;;;;;;5039512;28;20103;-77
2021/05/15 09:40:28;;;;;;;1.90;0.85;;;16.70;99.90;;;;;;5044857;28;20036;-79
2021/05/15 09:42:56;;;;;;;1.88;0.95;;;16.50;99.90;;;;;;5038241;28;20613;-82
2021/05/15 09:45:31;;;;;;;1.88;0.95;;;16.40;99.90;;;;;;5029680;28;20121;-78
2021/05/15 09:48:00;;;;;;;2.85;0.88;;;16.60;99.90;;;;;;5035700;28;20020;-80
2021/05/15 09:50:35;;;;;;;3.92;1.13;;;16.40;99.90;;;;;;5029797;28;20032;-79
2021/05/15 09:53:05;;;;;;;2.47;1.20;;;16.30;99.90;;;;;;5039572;28;20638;-83
2021/05/15 09:55:32;;;;;;;1.95;0.70;;;16.50;99.90;;;;;;5033143;28;20902;-82
2021/05/15 09:57:57;;;;;;;1.27;0.73;;;16.60;99.90;;;;;;5030295;28;20545;-77
2021/05/15 10:00:23;;;;;;;2.38;0.75;;;16.70;99.90;;;;;;5027084;28;20033;-78
2021/05/15 10:02:55;;;;;;;2.95;0.65;;;16.60;99.80;;;;;;5039926;28;20025;-77
2021/05/15 10:05:23;;;;;;;3.65;0.70;;;16.80;99.90;;;;;;5031212;28;20561;-78
2021/05/15 10:07:49;;;;;;;2.28;1.00;;;16.90;99.20;;;;;;5032286;28;20036;-76
2021/05/15 10:10:15;;;;;;;1.60;0.80;;;17.20;99.20;;;;;;5025885;28;20056;-76
2021/05/15 10:12:42;;;;;;;2.45;0.60;;;17.20;97.90;;;;;;5037665;28;20037;-74
2021/05/15 10:15:09;;;;;;;1.92;0.80;;;17.40;98.90;;;;;;5026015;28;20033;-79
2021/05/15 10:17:36;;;;;;;2.25;0.52;;;17.60;98.90;;;;;;5042171;28;20032;-79
2021/05/15 10:20:09;;;;;;;2.42;0.57;;;18.30;99.60;;;;;;5031561;28;20025;-78
2021/05/15 10:22:43;;;;;;;1.05;0.50;;;18.30;97.30;;;;;;5032113;28;20507;-77
2021/05/15 10:25:15;;;;;;;2.05;0.85;;;18.50;97.40;;;;;;5033483;28;20067;-75
2021/05/15 10:27:41;;;;;;;1.52;0.57;;;18.70;96.20;;;;;;5031021;28;20029;-75
2021/05/15 10:30:17;;;;;;;1.50;0.50;;;18.80;95.50;;;;;;5026987;28;20021;-75
2021/05/15 10:32:57;;;;;;;2.22;0.60;;;18.20;96.60;;;;;;5033818;28;20513;-77
2021/05/15 10:35:41;;;;;;;0.75;0.40;;;18.70;96.60;;;;;;5029291;28;20041;-74
2021/05/15 10:38:10;;;;;;;1.35;0.57;;;19.20;96.30;;;;;;5026636;28;20108;-75
2021/05/15 10:41:07;;;;;;;2.28;0.52;;;19.00;96.10;;;;;;5031608;28;20025;-76
2021/05/15 10:43:35;;;;;;;1.48;0.50;;;18.70;96.90;;;;;;5023096;28;20071;-76
2021/05/15 10:46:25;;;;;;;1.65;0.60;;;18.50;96.70;;;;;;5025927;28;20021;-73
2021/05/15 10:49:00;;;;;;;0.47;0.30;;;18.50;97.10;;;;;;5027034;28;20025;-74
2021/05/15 10:51:40;;;;;;;1.77;0.30;;;18.40;96.70;;;;;;5023436;28;20025;-73
2021/05/15 10:54:08;;;;;;;1.77;0.65;;;18.70;96.30;;;;;;5022462;28;20044;-74
2021/05/15 10:56:34;;;;;;;7.60;0.68;;;18.80;95.60;;;;;;5033591;28;20680;-75
2021/05/15 10:59:02;;;;;;;3.22;0.80;;;18.90;95.60;;;;;;5032691;28;20108;-74
2021/05/15 11:01:27;;;;;;;1.77;0.65;;;18.90;95.80;;;;;;5023079;28;20430;-74
2021/05/15 11:03:53;;;;;;;1.88;0.50;;;18.60;94.60;;;;;;5022880;28;20090;-74
2021/05/15 11:06:24;;;;;;;0.50;0.10;;;18.70;96.00;;;;;;5027900;28;20071;-74
2021/05/15 11:09:01;;;;;;;1.25;0.28;;;18.60;95.30;;;;;;5024549;28;20519;-73
2021/05/15 11:11:38;;;;;;;0.77;0.40;;;18.50;95.40;;;;;;5028001;28;20049;-74
2021/05/15 11:14:29;;;;;;;3.85;1.73;;;18.20;95.60;;;;;;5025979;28;20402;-76
2021/05/15 11:17:20;;;;;;;1.40;0.80;;;18.20;96.40;;;;;;5021720;28;20104;-74
2021/05/15 11:20:01;;;;;;;1.80;0.80;;;18.30;96.50;;;;;;5025509;28;20027;-76
2021/05/15 11:22:49;;;;;;;1.20;0.52;;;18.50;97.00;;;;;;5022915;28;20071;-75
2021/05/15 11:25:15;;;;;;;1.27;0.68;;;18.30;96.10;;;;;;5026558;28;20084;-73
2021/05/15 11:27:51;;;;;;;2.75;0.40;;;18.50;96.60;;;;;;5027181;28;20037;-74
2021/05/15 11:30:20;;;;;;;2.10;0.52;;;18.70;95.80;;;;;;5027053;28;20033;-74
2021/05/15 11:33:07;;;;;;;1.45;0.45;;;18.90;95.20;;;;;;5026618;28;20112;-75
2021/05/15 11:35:43;;;;;;;3.13;0.47;;;19.00;96.30;;;;;;5031840;28;20052;-75
2021/05/15 11:38:12;;;;;;;1.42;0.70;;;18.80;95.50;;;;;;5026602;28;20025;-74
2021/05/15 11:40:50;;;;;;;3.05;0.80;;;19.00;96.40;;;;;;5028764;28;20037;-74
2021/05/15 11:43:20;;;;;;;1.33;0.70;;;18.50;95.70;;;;;;5023938;28;20029;-75
2021/05/15 11:45:47;;;;;;;2.60;0.60;;;18.60;95.80;;;;;;5031406;28;20072;-78
2021/05/15 11:48:21;;;;;;;2.38;0.57;;;18.80;96.40;;;;;;5026038;28;20029;-76
2021/05/15 11:51:11;;;;;;;2.30;0.77;;;19.00;95.70;;;;;;5026622;28;20613;-77
2021/05/15 11:53:42;;;;;;;2.33;0.75;;;19.10;95.90;;;;;;5025833;28;20033;-75
2021/05/15 11:56:28;;;;;;;3.97;1.85;;;18.90;96.20;;;;;;5030898;28;20036;-87
2021/05/15 11:58:59;;;;;;;14.48;1.95;;;18.70;96.30;;;;;;5036978;28;20025;-80
2021/05/15 12:01:36;;;;;;;2.20;1.20;;;19.00;96.70;;;;;;5033649;28;20487;-82
2021/05/15 12:04:17;;;;;;;3.35;1.10;;;19.20;96.90;;;;;;5031656;28;20029;-77
2021/05/15 12:06:44;;;;;;;2.10;0.90;;;19.30;96.20;;;;;;5036750;28;20021;-77
2021/05/15 12:09:14;;;;;;;2.75;1.20;;;19.40;97.00;;;;;;5020490;28;20032;-76
2021/05/15 12:11:40;;;;;;;5.38;1.45;;;19.90;96.40;;;;;;5038593;28;20556;-80
2021/05/15 12:14:06;;;;;;;2.58;1.30;;;19.40;95.50;;;;;;5035190;28;20044;-80
2021/05/15 12:16:37;;;;;;;2.97;1.13;;;19.10;95.50;;;;;;5037541;28;20073;-78
2021/05/15 12:19:04;;;;;;;2.70;1.00;;;19.10;95.80;;;;;;5030569;28;20581;-78
2021/05/15 12:21:30;;;;;;;2.22;1.00;;;19.10;95.30;;;;;;5028705;28;20386;-77
2021/05/15 12:24:07;;;;;;;4.38;1.58;;;19.20;95.10;;;;;;5032400;28;20034;-78
2021/05/15 12:26:33;;;;;;;4.10;1.27;;;19.00;95.00;;;;;;5037786;28;20367;-78
2021/05/15 12:29:04;;;;;;;3.53;1.10;;;19.00;94.70;;;;;;5033865;28;20026;-76
2021/05/15 12:31:32;;;;;;;3.53;1.00;;;19.10;94.80;;;;;;5032285;28;20044;-77
2021/05/15 12:33:59;;;;;;;3.05;1.20;;;19.20;94.90;;;;;;5031134;28;20049;-77
2021/05/15 12:36:34;;;;;;;3.58;1.60;;;18.90;94.70;;;;;;5024663;28;20479;-77
2021/05/15 12:39:01;;;;;;;2.40;1.42;;;18.70;95.20;;;;;;5040779;28;20025;-79
2021/05/15 12:41:29;;;;;;;4.20;1.00;;;18.70;94.90;;;;;;5033256;28;20029;-80
2021/05/15 12:44:08;;;;;;;2.80;1.13;;;18.70;95.10;;;;;;5038684;28;20128;-77
2021/05/15 12:46:36;;;;;;;2.75;1.40;;;18.60;94.70;;;;;;5037673;28;20036;-77
2021/05/15 12:49:05;;;;;;;2.63;1.25;;;18.60;94.50;;;;;;5032960;28;20042;-76
2021/05/15 12:51:32;;;;;;;1.45;0.75;;;18.40;94.20;;;;;;5039740;28;20174;-77
2021/05/15 12:54:09;;;;;;;3.00;1.02;;;18.70;95.20;;;;;;5040144;28;20115;-76
2021/05/15 12:56:36;;;;;;;2.22;1.00;;;18.60;94.80;;;;;;5034520;28;20029;-77